sensor_id;sensor_type;location;lat;lon;timestamp;temperature;humidity
25554;DHT22;13446;50.926;5.332;2023-02-25T00:01:44;6.10;99.90
25554;DHT22;13446;50.926;5.332;2023-02-25T00:04:10;6.00;99.90
25554;DHT22;13446;50.926;5.332;2023-02-25T00:06:35;5.90;99.90
25554;DHT22;13446;50.926;5.332;2023-02-25T00:09:01;5.80;99.90
25554;DHT22;13446;50.926;5.332;2023-02-25T00:11:26;5.60;99.90
25554;DHT22;13446;50.926;5.332;2023-02-25T00:13:52;5.70;99.90
25554;DHT22;13446;50.926;5.332;2023-02-25T00:16:18;5.70;99.90
25554;DHT22;13446;50.926;5.332;2023-02-25T00:18:44;5.80;99.90
25554;DHT22;13446;50.926;5.332;2023-02-25T00:21:11;5.90;99.90
25554;DHT22;13446;50.926;5.332;2023-02-25T00:23:43;5.90;99.90
25554;DHT22;13446;50.926;5.332;2023-02-25T00:26:09;5.70;99.90
25554;DHT22;13446;50.926;5.332;2023-02-25T00:28:36;5.70;99.90
25554;DHT22;13446;50.926;5.332;2023-02-25T00:31:05;5.80;99.90
25554;DHT22;13446;50.926;5.332;2023-02-25T00:33:31;5.80;99.90
25554;DHT22;13446;50.926;5.332;2023-02-25T00:35:57;6.00;99.90
25554;DHT22;13446;50.926;5.332;2023-02-25T00:38:22;6.00;99.90
25554;DHT22;13446;50.926;5.332;2023-02-25T00:40:48;6.00;99.90
25554;DHT22;13446;50.926;5.332;2023-02-25T00:43:14;6.10;99.90
25554;DHT22;13446;50.926;5.332;2023-02-25T00:45:39;6.00;99.90
25554;DHT22;13446;50.926;5.332;2023-02-25T00:48:06;5.90;99.90
25554;DHT22;13446;50.926;5.332;2023-02-25T00:50:32;5.70;99.90
25554;DHT22;13446;50.926;5.332;2023-02-25T00:52:58;5.70;99.90
25554;DHT22;13446;50.926;5.332;2023-02-25T00:55:24;5.60;99.90
25554;DHT22;13446;50.926;5.332;2023-02-25T00:57:49;5.50;99.90
25554;DHT22;13446;50.926;5.332;2023-02-25T01:00:15;5.40;99.90
25554;DHT22;13446;50.926;5.332;2023-02-25T01:02:42;5.40;99.90
25554;DHT22;13446;50.926;5.332;2023-02-25T01:05:13;5.40;99.90
25554;DHT22;13446;50.926;5.332;2023-02-25T01:07:39;5.30;99.90
25554;DHT22;13446;50.926;5.332;2023-02-25T01:10:04;5.20;99.90
25554;DHT22;13446;50.926;5.332;2023-02-25T01:12:30;5.20;99.90
25554;DHT22;13446;50.926;5.332;2023-02-25T01:14:55;5.10;99.90
25554;DHT22;13446;50.926;5.332;2023-02-25T01:17:21;5.10;99.90
25554;DHT22;13446;50.926;5.332;2023-02-25T01:19:47;5.10;99.90
25554;DHT22;13446;50.926;5.332;2023-02-25T01:22:13;5.10;99.90
25554;DHT22;13446;50.926;5.332;2023-02-25T01:24:39;5.10;99.90
25554;DHT22;13446;50.926;5.332;2023-02-25T01:27:05;5.00;99.90
25554;DHT22;13446;50.926;5.332;2023-02-25T01:29:32;4.90;99.90
25554;DHT22;13446;50.926;5.332;2023-02-25T01:31:59;5.00;99.90
25554;DHT22;13446;50.926;5.332;2023-02-25T01:34:26;5.00;99.90
25554;DHT22;13446;50.926;5.332;2023-02-25T01:36:53;5.00;99.90
25554;DHT22;13446;50.926;5.332;2023-02-25T01:39:19;5.00;99.90
25554;DHT22;13446;50.926;5.332;2023-02-25T01:41:45;5.00;99.90
25554;DHT22;13446;50.926;5.332;2023-02-25T01:44:14;5.00;99.90
25554;DHT22;13446;50.926;5.332;2023-02-25T01:46:41;4.90;99.90
25554;DHT22;13446;50.926;5.332;2023-02-25T01:49:11;4.90;99.90
25554;DHT22;13446;50.926;5.332;2023-02-25T01:51:38;5.00;99.90
25554;DHT22;13446;50.926;5.332;2023-02-25T01:54:04;5.00;99.90
25554;DHT22;13446;50.926;5.332;2023-02-25T01:56:32;4.90;99.90
25554;DHT22;13446;50.926;5.332;2023-02-25T01:58:58;4.90;99.90
25554;DHT22;13446;50.926;5.332;2023-02-25T02:01:25;4.90;99.90
25554;DHT22;13446;50.926;5.332;2023-02-25T02:03:54;4.90;99.90
25554;DHT22;13446;50.926;5.332;2023-02-25T02:06:25;5.00;99.90
25554;DHT22;13446;50.926;5.332;2023-02-25T02:08:52;5.10;99.90
25554;DHT22;13446;50.926;5.332;2023-02-25T02:11:18;5.10;99.90
25554;DHT22;13446;50.926;5.332;2023-02-25T02:13:45;5.20;99.90
25554;DHT22;13446;50.926;5.332;2023-02-25T02:18:58;5.30;99.90
25554;DHT22;13446;50.926;5.332;2023-02-25T02:26:42;5.50;99.90
25554;DHT22;13446;50.926;5.332;2023-02-25T02:31:43;5.30;99.90
25554;DHT22;13446;50.926;5.332;2023-02-25T02:39:13;5.20;99.90
25554;DHT22;13446;50.926;5.332;2023-02-25T02:41:46;5.10;99.90
25554;DHT22;13446;50.926;5.332;2023-02-25T02:46:50;4.90;99.90
25554;DHT22;13446;50.926;5.332;2023-02-25T02:51:45;4.80;99.90
25554;DHT22;13446;50.926;5.332;2023-02-25T02:54:12;4.80;99.90
25554;DHT22;13446;50.926;5.332;2023-02-25T02:56:40;4.70;99.90
25554;DHT22;13446;50.926;5.332;2023-02-25T02:59:07;4.60;99.90
25554;DHT22;13446;50.926;5.332;2023-02-25T03:01:36;4.60;99.90
25554;DHT22;13446;50.926;5.332;2023-02-25T03:04:04;4.50;99.90
25554;DHT22;13446;50.926;5.332;2023-02-25T03:06:32;4.50;99.90
25554;DHT22;13446;50.926;5.332;2023-02-25T03:09:03;4.50;99.90
25554;DHT22;13446;50.926;5.332;2023-02-25T03:11:30;4.50;99.90
25554;DHT22;13446;50.926;5.332;2023-02-25T03:13:55;4.50;99.90
25554;DHT22;13446;50.926;5.332;2023-02-25T03:16:41;4.40;99.90
25554;DHT22;13446;50.926;5.332;2023-02-25T03:19:20;4.50;99.90
25554;DHT22;13446;50.926;5.332;2023-02-25T03:21:48;4.50;99.90
25554;DHT22;13446;50.926;5.332;2023-02-25T03:24:18;4.50;99.90
25554;DHT22;13446;50.926;5.332;2023-02-25T03:26:47;4.60;99.90
25554;DHT22;13446;50.926;5.332;2023-02-25T03:29:17;4.60;99.90
25554;DHT22;13446;50.926;5.332;2023-02-25T03:31:47;4.50;99.90
25554;DHT22;13446;50.926;5.332;2023-02-25T03:34:17;4.40;99.90
25554;DHT22;13446;50.926;5.332;2023-02-25T03:36:45;4.50;99.90
25554;DHT22;13446;50.926;5.332;2023-02-25T03:39:16;4.50;99.90
25554;DHT22;13446;50.926;5.332;2023-02-25T03:41:44;4.60;99.90
25554;DHT22;13446;50.926;5.332;2023-02-25T03:44:11;4.60;99.90
25554;DHT22;13446;50.926;5.332;2023-02-25T03:46:39;4.60;99.90
25554;DHT22;13446;50.926;5.332;2023-02-25T03:49:06;4.70;99.90
25554;DHT22;13446;50.926;5.332;2023-02-25T03:51:35;4.60;99.90
25554;DHT22;13446;50.926;5.332;2023-02-25T03:54:03;4.60;99.90
25554;DHT22;13446;50.926;5.332;2023-02-25T03:56:28;4.60;99.90
25554;DHT22;13446;50.926;5.332;2023-02-25T03:58:54;4.60;99.90
25554;DHT22;13446;50.926;5.332;2023-02-25T04:01:21;4.80;99.90
25554;DHT22;13446;50.926;5.332;2023-02-25T04:03:49;4.80;99.90
25554;DHT22;13446;50.926;5.332;2023-02-25T04:06:14;4.80;99.90
25554;DHT22;13446;50.926;5.332;2023-02-25T04:08:40;4.80;99.90
25554;DHT22;13446;50.926;5.332;2023-02-25T04:11:06;4.70;99.90
25554;DHT22;13446;50.926;5.332;2023-02-25T04:13:32;4.70;99.90
25554;DHT22;13446;50.926;5.332;2023-02-25T04:15:57;4.70;99.90
25554;DHT22;13446;50.926;5.332;2023-02-25T04:18:23;4.70;99.90
25554;DHT22;13446;50.926;5.332;2023-02-25T04:20:49;4.60;99.90
25554;DHT22;13446;50.926;5.332;2023-02-25T04:23:14;4.60;99.90
25554;DHT22;13446;50.926;5.332;2023-02-25T04:25:41;4.60;99.90
25554;DHT22;13446;50.926;5.332;2023-02-25T04:28:07;4.40;99.90
25554;DHT22;13446;50.926;5.332;2023-02-25T04:30:33;4.40;99.90
25554;DHT22;13446;50.926;5.332;2023-02-25T04:32:58;4.40;99.90
25554;DHT22;13446;50.926;5.332;2023-02-25T04:35:24;4.40;99.90
25554;DHT22;13446;50.926;5.332;2023-02-25T04:37:49;4.40;99.90
25554;DHT22;13446;50.926;5.332;2023-02-25T04:40:16;4.50;99.90
25554;DHT22;13446;50.926;5.332;2023-02-25T04:42:42;4.50;99.90
25554;DHT22;13446;50.926;5.332;2023-02-25T04:45:08;4.50;99.90
25554;DHT22;13446;50.926;5.332;2023-02-25T04:47:34;4.60;99.90
25554;DHT22;13446;50.926;5.332;2023-02-25T04:50:00;4.60;99.90
25554;DHT22;13446;50.926;5.332;2023-02-25T04:52:26;4.60;99.90
25554;DHT22;13446;50.926;5.332;2023-02-25T04:54:52;4.70;99.90
25554;DHT22;13446;50.926;5.332;2023-02-25T04:57:17;4.80;99.90
25554;DHT22;13446;50.926;5.332;2023-02-25T04:59:43;4.90;99.90
25554;DHT22;13446;50.926;5.332;2023-02-25T05:02:08;5.00;99.90
25554;DHT22;13446;50.926;5.332;2023-02-25T05:04:35;5.00;99.90
25554;DHT22;13446;50.926;5.332;2023-02-25T05:07:01;5.00;99.90
25554;DHT22;13446;50.926;5.332;2023-02-25T05:09:27;4.90;99.90
25554;DHT22;13446;50.926;5.332;2023-02-25T05:11:52;4.90;99.90
25554;DHT22;13446;50.926;5.332;2023-02-25T05:14:18;4.80;99.90
25554;DHT22;13446;50.926;5.332;2023-02-25T05:16:44;4.70;99.90
25554;DHT22;13446;50.926;5.332;2023-02-25T05:19:16;4.70;99.90
25554;DHT22;13446;50.926;5.332;2023-02-25T05:21:42;4.70;99.90
25554;DHT22;13446;50.926;5.332;2023-02-25T05:24:09;4.60;99.90
25554;DHT22;13446;50.926;5.332;2023-02-25T05:26:35;4.60;99.90
25554;DHT22;13446;50.926;5.332;2023-02-25T05:29:00;4.70;99.90
25554;DHT22;13446;50.926;5.332;2023-02-25T05:31:26;4.80;99.90
25554;DHT22;13446;50.926;5.332;2023-02-25T05:33:52;4.80;99.90
25554;DHT22;13446;50.926;5.332;2023-02-25T05:36:18;4.70;99.90
25554;DHT22;13446;50.926;5.332;2023-02-25T05:38:44;4.80;99.90
25554;DHT22;13446;50.926;5.332;2023-02-25T05:41:09;4.90;99.90
25554;DHT22;13446;50.926;5.332;2023-02-25T05:43:36;4.90;99.90
25554;DHT22;13446;50.926;5.332;2023-02-25T05:46:02;5.20;99.90
25554;DHT22;13446;50.926;5.332;2023-02-25T05:48:30;5.30;99.90
25554;DHT22;13446;50.926;5.332;2023-02-25T05:51:00;5.30;99.90
25554;DHT22;13446;50.926;5.332;2023-02-25T05:53:25;5.20;99.90
25554;DHT22;13446;50.926;5.332;2023-02-25T05:55:51;5.20;99.90
25554;DHT22;13446;50.926;5.332;2023-02-25T05:58:17;5.10;99.90
25554;DHT22;13446;50.926;5.332;2023-02-25T06:00:42;5.10;99.90
25554;DHT22;13446;50.926;5.332;2023-02-25T06:03:08;5.10;99.90
25554;DHT22;13446;50.926;5.332;2023-02-25T06:05:33;5.20;99.90
25554;DHT22;13446;50.926;5.332;2023-02-25T06:07:59;5.20;99.90
25554;DHT22;13446;50.926;5.332;2023-02-25T06:10:25;5.20;99.90
25554;DHT22;13446;50.926;5.332;2023-02-25T06:12:51;5.20;99.90
25554;DHT22;13446;50.926;5.332;2023-02-25T06:15:17;5.20;99.90
25554;DHT22;13446;50.926;5.332;2023-02-25T06:17:42;5.20;99.90
25554;DHT22;13446;50.926;5.332;2023-02-25T06:20:08;5.20;99.90
25554;DHT22;13446;50.926;5.332;2023-02-25T06:22:34;5.00;99.90
25554;DHT22;13446;50.926;5.332;2023-02-25T06:25:00;5.00;99.90
25554;DHT22;13446;50.926;5.332;2023-02-25T06:27:26;5.10;99.90
25554;DHT22;13446;50.926;5.332;2023-02-25T06:29:51;5.20;99.90
25554;DHT22;13446;50.926;5.332;2023-02-25T06:32:17;5.10;99.90
25554;DHT22;13446;50.926;5.332;2023-02-25T06:34:43;5.00;99.90
25554;DHT22;13446;50.926;5.332;2023-02-25T06:37:09;5.00;99.90
25554;DHT22;13446;50.926;5.332;2023-02-25T06:39:35;4.90;99.90
25554;DHT22;13446;50.926;5.332;2023-02-25T06:42:00;4.90;99.90
25554;DHT22;13446;50.926;5.332;2023-02-25T06:44:27;4.80;99.90
25554;DHT22;13446;50.926;5.332;2023-02-25T06:46:53;4.70;99.90
25554;DHT22;13446;50.926;5.332;2023-02-25T06:49:22;4.60;99.90
25554;DHT22;13446;50.926;5.332;2023-02-25T06:51:48;4.60;99.90
25554;DHT22;13446;50.926;5.332;2023-02-25T06:54:14;4.60;99.90
25554;DHT22;13446;50.926;5.332;2023-02-25T06:56:40;4.60;99.90
25554;DHT22;13446;50.926;5.332;2023-02-25T06:59:05;4.70;99.90
25554;DHT22;13446;50.926;5.332;2023-02-25T07:01:31;4.80;99.90
25554;DHT22;13446;50.926;5.332;2023-02-25T07:03:57;4.80;99.90
25554;DHT22;13446;50.926;5.332;2023-02-25T07:06:22;4.90;99.90
25554;DHT22;13446;50.926;5.332;2023-02-25T07:08:48;5.00;99.90
25554;DHT22;13446;50.926;5.332;2023-02-25T07:11:24;5.20;99.90
25554;DHT22;13446;50.926;5.332;2023-02-25T07:13:51;5.40;99.90
25554;DHT22;13446;50.926;5.332;2023-02-25T07:16:16;5.60;99.90
25554;DHT22;13446;50.926;5.332;2023-02-25T07:18:42;5.80;99.90
25554;DHT22;13446;50.926;5.332;2023-02-25T07:21:08;6.00;99.90
25554;DHT22;13446;50.926;5.332;2023-02-25T07:23:36;6.20;99.90
25554;DHT22;13446;50.926;5.332;2023-02-25T07:26:03;6.40;99.90
25554;DHT22;13446;50.926;5.332;2023-02-25T07:28:28;6.70;99.90
25554;DHT22;13446;50.926;5.332;2023-02-25T07:30:54;6.90;99.90
25554;DHT22;13446;50.926;5.332;2023-02-25T07:33:20;7.10;99.90
25554;DHT22;13446;50.926;5.332;2023-02-25T07:35:45;7.10;99.90
25554;DHT22;13446;50.926;5.332;2023-02-25T07:38:11;7.20;99.90
25554;DHT22;13446;50.926;5.332;2023-02-25T07:40:37;7.40;99.90
25554;DHT22;13446;50.926;5.332;2023-02-25T07:43:04;8.10;99.90
25554;DHT22;13446;50.926;5.332;2023-02-25T07:45:29;8.80;99.90
25554;DHT22;13446;50.926;5.332;2023-02-25T07:47:55;9.50;99.90
25554;DHT22;13446;50.926;5.332;2023-02-25T07:50:20;10.60;99.90
25554;DHT22;13446;50.926;5.332;2023-02-25T07:52:46;10.90;99.90
25554;DHT22;13446;50.926;5.332;2023-02-25T07:55:11;11.80;99.90
25554;DHT22;13446;50.926;5.332;2023-02-25T07:57:37;13.20;99.90
25554;DHT22;13446;50.926;5.332;2023-02-25T08:00:03;13.70;99.90
25554;DHT22;13446;50.926;5.332;2023-02-25T08:02:31;14.70;99.90
25554;DHT22;13446;50.926;5.332;2023-02-25T08:04:56;14.80;99.00
25554;DHT22;13446;50.926;5.332;2023-02-25T08:07:22;15.40;99.30
25554;DHT22;13446;50.926;5.332;2023-02-25T08:09:47;16.40;96.90
25554;DHT22;13446;50.926;5.332;2023-02-25T08:12:13;17.00;93.30
25554;DHT22;13446;50.926;5.332;2023-02-25T08:14:38;16.90;90.90
25554;DHT22;13446;50.926;5.332;2023-02-25T08:17:04;17.80;89.70
25554;DHT22;13446;50.926;5.332;2023-02-25T08:19:30;18.50;84.80
25554;DHT22;13446;50.926;5.332;2023-02-25T08:21:55;19.00;76.60
25554;DHT22;13446;50.926;5.332;2023-02-25T08:24:21;19.20;74.80
25554;DHT22;13446;50.926;5.332;2023-02-25T08:26:47;19.70;73.20
25554;DHT22;13446;50.926;5.332;2023-02-25T08:29:12;20.20;68.70
25554;DHT22;13446;50.926;5.332;2023-02-25T08:31:38;20.50;65.10
25554;DHT22;13446;50.926;5.332;2023-02-25T08:34:04;20.40;63.30
25554;DHT22;13446;50.926;5.332;2023-02-25T08:36:30;20.60;62.30
25554;DHT22;13446;50.926;5.332;2023-02-25T08:38:56;20.50;58.90
25554;DHT22;13446;50.926;5.332;2023-02-25T08:41:22;21.20;59.20
25554;DHT22;13446;50.926;5.332;2023-02-25T08:43:48;21.20;58.70
25554;DHT22;13446;50.926;5.332;2023-02-25T08:46:15;19.50;58.40
25554;DHT22;13446;50.926;5.332;2023-02-25T08:48:41;20.40;58.60
25554;DHT22;13446;50.926;5.332;2023-02-25T08:51:07;21.00;58.40
25554;DHT22;13446;50.926;5.332;2023-02-25T08:53:34;21.50;55.30
25554;DHT22;13446;50.926;5.332;2023-02-25T08:56:01;20.00;56.50
25554;DHT22;13446;50.926;5.332;2023-02-25T08:58:27;15.80;67.40
25554;DHT22;13446;50.926;5.332;2023-02-25T09:00:54;14.40;83.00
25554;DHT22;13446;50.926;5.332;2023-02-25T09:03:20;14.70;84.80
25554;DHT22;13446;50.926;5.332;2023-02-25T09:05:52;14.60;86.30
25554;DHT22;13446;50.926;5.332;2023-02-25T09:08:17;16.20;84.20
25554;DHT22;13446;50.926;5.332;2023-02-25T09:10:43;17.80;75.80
25554;DHT22;13446;50.926;5.332;2023-02-25T09:13:09;17.20;73.60
25554;DHT22;13446;50.926;5.332;2023-02-25T09:15:36;17.20;73.50
25554;DHT22;13446;50.926;5.332;2023-02-25T09:18:02;16.30;73.10
25554;DHT22;13446;50.926;5.332;2023-02-25T09:20:27;15.50;80.70
25554;DHT22;13446;50.926;5.332;2023-02-25T09:22:53;16.20;78.90
25554;DHT22;13446;50.926;5.332;2023-02-25T09:25:19;15.60;79.30
25554;DHT22;13446;50.926;5.332;2023-02-25T09:27:45;14.40;83.50
25554;DHT22;13446;50.926;5.332;2023-02-25T09:30:10;13.70;86.60
25554;DHT22;13446;50.926;5.332;2023-02-25T09:32:36;13.50;89.90
25554;DHT22;13446;50.926;5.332;2023-02-25T09:35:02;12.90;91.40
25554;DHT22;13446;50.926;5.332;2023-02-25T09:37:28;12.30;94.00
25554;DHT22;13446;50.926;5.332;2023-02-25T09:39:53;13.50;93.90
25554;DHT22;13446;50.926;5.332;2023-02-25T09:42:20;15.50;90.70
25554;DHT22;13446;50.926;5.332;2023-02-25T09:44:56;16.50;84.30
25554;DHT22;13446;50.926;5.332;2023-02-25T09:47:35;16.70;81.30
25554;DHT22;13446;50.926;5.332;2023-02-25T09:52:42;15.50;80.70
25554;DHT22;13446;50.926;5.332;2023-02-25T09:57:40;14.40;84.00
25554;DHT22;13446;50.926;5.332;2023-02-25T10:00:18;13.40;90.00
25554;DHT22;13446;50.926;5.332;2023-02-25T10:05:32;12.50;92.80
25554;DHT22;13446;50.926;5.332;2023-02-25T10:26:23;10.80;99.90
25554;DHT22;13446;50.926;5.332;2023-02-25T10:28:49;11.20;99.90
25554;DHT22;13446;50.926;5.332;2023-02-25T10:31:17;11.20;99.90
25554;DHT22;13446;50.926;5.332;2023-02-25T10:33:43;11.60;99.90
25554;DHT22;13446;50.926;5.332;2023-02-25T10:36:20;11.30;99.90
25554;DHT22;13446;50.926;5.332;2023-02-25T10:38:50;11.30;99.90
25554;DHT22;13446;50.926;5.332;2023-02-25T10:41:25;11.40;99.90
25554;DHT22;13446;50.926;5.332;2023-02-25T10:43:52;11.20;99.90
25554;DHT22;13446;50.926;5.332;2023-02-25T10:48:57;10.70;99.90
25554;DHT22;13446;50.926;5.332;2023-02-25T10:51:23;10.90;99.90
25554;DHT22;13446;50.926;5.332;2023-02-25T10:56:17;10.60;99.90
25554;DHT22;13446;50.926;5.332;2023-02-25T10:58:43;10.80;99.90
25554;DHT22;13446;50.926;5.332;2023-02-25T11:01:15;11.10;99.90
25554;DHT22;13446;50.926;5.332;2023-02-25T11:06:24;12.10;99.90
25554;DHT22;13446;50.926;5.332;2023-02-25T11:08:51;12.10;99.90
25554;DHT22;13446;50.926;5.332;2023-02-25T11:11:21;11.80;99.90
25554;DHT22;13446;50.926;5.332;2023-02-25T11:14:03;11.80;99.90
25554;DHT22;13446;50.926;5.332;2023-02-25T11:16:31;11.70;99.90
25554;DHT22;13446;50.926;5.332;2023-02-25T11:19:00;11.40;99.90
25554;DHT22;13446;50.926;5.332;2023-02-25T11:21:35;11.00;99.90
25554;DHT22;13446;50.926;5.332;2023-02-25T11:24:04;10.80;99.90
25554;DHT22;13446;50.926;5.332;2023-02-25T11:26:34;10.90;99.90
25554;DHT22;13446;50.926;5.332;2023-02-25T11:29:06;10.70;99.90
25554;DHT22;13446;50.926;5.332;2023-02-25T11:31:35;10.60;99.90
25554;DHT22;13446;50.926;5.332;2023-02-25T11:34:04;10.60;99.90
25554;DHT22;13446;50.926;5.332;2023-02-25T11:36:35;10.80;99.90
25554;DHT22;13446;50.926;5.332;2023-02-25T11:39:15;11.00;99.90
25554;DHT22;13446;50.926;5.332;2023-02-25T11:41:42;11.20;99.90
25554;DHT22;13446;50.926;5.332;2023-02-25T11:44:11;11.20;99.90
25554;DHT22;13446;50.926;5.332;2023-02-25T11:46:42;11.00;99.90
25554;DHT22;13446;50.926;5.332;2023-02-25T11:51:59;14.30;97.40
25554;DHT22;13446;50.926;5.332;2023-02-25T11:56:56;15.80;83.40
25554;DHT22;13446;50.926;5.332;2023-02-25T11:59:35;15.00;85.10
25554;DHT22;13446;50.926;5.332;2023-02-25T12:07:37;12.30;95.10
25554;DHT22;13446;50.926;5.332;2023-02-25T12:17:49;9.20;99.90
25554;DHT22;13446;50.926;5.332;2023-02-25T12:25:49;8.70;99.90
25554;DHT22;13446;50.926;5.332;2023-02-25T12:43:51;13.90;99.90
25554;DHT22;13446;50.926;5.332;2023-02-25T13:04:33;13.20;99.90
25554;DHT22;13446;50.926;5.332;2023-02-25T13:12:25;11.10;99.90
25554;DHT22;13446;50.926;5.332;2023-02-25T13:15:06;10.90;99.90
25554;DHT22;13446;50.926;5.332;2023-02-25T13:22:55;11.10;99.90
25554;DHT22;13446;50.926;5.332;2023-02-25T13:30:34;17.00;95.10
25554;DHT22;13446;50.926;5.332;2023-02-25T13:40:50;18.80;68.00
25554;DHT22;13446;50.926;5.332;2023-02-25T13:46:14;15.90;71.90
25554;DHT22;13446;50.926;5.332;2023-02-25T13:54:26;12.70;90.90
25554;DHT22;13446;50.926;5.332;2023-02-25T14:07:09;9.90;99.90
25554;DHT22;13446;50.926;5.332;2023-02-25T14:22:41;13.80;75.90
25554;DHT22;13446;50.926;5.332;2023-02-25T14:25:19;13.50;76.00
25554;DHT22;13446;50.926;5.332;2023-02-25T14:27:53;13.50;77.60
25554;DHT22;13446;50.926;5.332;2023-02-25T14:30:28;13.40;75.90
25554;DHT22;13446;50.926;5.332;2023-02-25T14:38:14;12.10;84.30
25554;DHT22;13446;50.926;5.332;2023-02-25T14:58:45;9.90;93.80
25554;DHT22;13446;50.926;5.332;2023-02-25T15:09:37;9.60;95.60
25554;DHT22;13446;50.926;5.332;2023-02-25T15:12:12;9.50;95.60
25554;DHT22;13446;50.926;5.332;2023-02-25T15:22:23;9.10;93.90
25554;DHT22;13446;50.926;5.332;2023-02-25T15:24:49;9.10;94.20
25554;DHT22;13446;50.926;5.332;2023-02-25T15:29:58;9.10;95.10
25554;DHT22;13446;50.926;5.332;2023-02-25T15:32:27;9.20;94.70
25554;DHT22;13446;50.926;5.332;2023-02-25T15:39:56;9.30;95.50
25554;DHT22;13446;50.926;5.332;2023-02-25T15:42:38;9.40;95.60
25554;DHT22;13446;50.926;5.332;2023-02-25T15:47:49;9.10;91.50
25554;DHT22;13446;50.926;5.332;2023-02-25T15:50:49;8.90;90.80
25554;DHT22;13446;50.926;5.332;2023-02-25T15:53:02;8.80;91.90
25554;DHT22;13446;50.926;5.332;2023-02-25T15:55:32;8.40;92.30
25554;DHT22;13446;50.926;5.332;2023-02-25T15:57:58;8.40;92.70
25554;DHT22;13446;50.926;5.332;2023-02-25T16:05:52;8.30;93.30
25554;DHT22;13446;50.926;5.332;2023-02-25T16:08:22;8.30;93.80
25554;DHT22;13446;50.926;5.332;2023-02-25T16:10:49;8.30;93.90
25554;DHT22;13446;50.926;5.332;2023-02-25T16:13:36;8.50;94.00
25554;DHT22;13446;50.926;5.332;2023-02-25T16:16:01;8.50;92.50
25554;DHT22;13446;50.926;5.332;2023-02-25T16:18:49;8.40;91.80
25554;DHT22;13446;50.926;5.332;2023-02-25T16:23:40;8.40;88.60
25554;DHT22;13446;50.926;5.332;2023-02-25T16:28:56;8.10;89.00
25554;DHT22;13446;50.926;5.332;2023-02-25T16:34:05;7.80;89.80
25554;DHT22;13446;50.926;5.332;2023-02-25T16:36:44;7.80;90.30
25554;DHT22;13446;50.926;5.332;2023-02-25T16:39:19;7.70;90.40
25554;DHT22;13446;50.926;5.332;2023-02-25T16:41:46;7.60;91.10
25554;DHT22;13446;50.926;5.332;2023-02-25T16:44:22;7.60;91.50
25554;DHT22;13446;50.926;5.332;2023-02-25T16:46:52;7.70;91.70
25554;DHT22;13446;50.926;5.332;2023-02-25T16:49:27;7.60;91.90
25554;DHT22;13446;50.926;5.332;2023-02-25T16:51:54;7.60;92.80
25554;DHT22;13446;50.926;5.332;2023-02-25T16:54:24;7.60;92.90
25554;DHT22;13446;50.926;5.332;2023-02-25T16:56:54;7.50;93.00
25554;DHT22;13446;50.926;5.332;2023-02-25T16:59:22;7.50;97.30
25554;DHT22;13446;50.926;5.332;2023-02-25T17:04:35;7.20;94.30
25554;DHT22;13446;50.926;5.332;2023-02-25T17:09:29;7.10;94.30
25554;DHT22;13446;50.926;5.332;2023-02-25T17:11:54;7.10;93.30
25554;DHT22;13446;50.926;5.332;2023-02-25T17:14:20;6.90;93.60
25554;DHT22;13446;50.926;5.332;2023-02-25T17:16:46;6.90;93.80
25554;DHT22;13446;50.926;5.332;2023-02-25T17:19:12;6.60;93.70
25554;DHT22;13446;50.926;5.332;2023-02-25T17:21:40;6.50;94.40
25554;DHT22;13446;50.926;5.332;2023-02-25T17:24:14;6.50;94.30
25554;DHT22;13446;50.926;5.332;2023-02-25T17:26:44;6.70;93.30
25554;DHT22;13446;50.926;5.332;2023-02-25T17:29:12;6.70;93.30
25554;DHT22;13446;50.926;5.332;2023-02-25T17:31:46;6.60;93.90
25554;DHT22;13446;50.926;5.332;2023-02-25T17:34:13;6.60;94.00
25554;DHT22;13446;50.926;5.332;2023-02-25T17:36:39;6.60;94.00
25554;DHT22;13446;50.926;5.332;2023-02-25T17:39:06;6.60;94.30
25554;DHT22;13446;50.926;5.332;2023-02-25T17:41:33;6.60;94.00
25554;DHT22;13446;50.926;5.332;2023-02-25T17:43:58;6.50;93.70
25554;DHT22;13446;50.926;5.332;2023-02-25T17:46:39;6.40;94.40
25554;DHT22;13446;50.926;5.332;2023-02-25T17:51:39;6.50;94.40
25554;DHT22;13446;50.926;5.332;2023-02-25T17:54:12;6.30;94.40
25554;DHT22;13446;50.926;5.332;2023-02-25T17:56:40;6.30;94.70
25554;DHT22;13446;50.926;5.332;2023-02-25T18:06:48;5.90;95.90
25554;DHT22;13446;50.926;5.332;2023-02-25T18:09:28;6.00;95.60
25554;DHT22;13446;50.926;5.332;2023-02-25T18:11:55;5.80;95.40
25554;DHT22;13446;50.926;5.332;2023-02-25T18:14:32;5.80;95.30
25554;DHT22;13446;50.926;5.332;2023-02-25T18:16:59;5.90;95.70
25554;DHT22;13446;50.926;5.332;2023-02-25T18:21:51;5.70;96.70
25554;DHT22;13446;50.926;5.332;2023-02-25T18:24:24;5.70;96.70
25554;DHT22;13446;50.926;5.332;2023-02-25T18:29:25;5.70;97.20
25554;DHT22;13446;50.926;5.332;2023-02-25T18:31:51;5.70;96.80
25554;DHT22;13446;50.926;5.332;2023-02-25T18:34:16;5.60;96.80
25554;DHT22;13446;50.926;5.332;2023-02-25T18:36:42;5.50;97.30
25554;DHT22;13446;50.926;5.332;2023-02-25T18:39:08;5.50;96.80
25554;DHT22;13446;50.926;5.332;2023-02-25T18:41:36;5.40;96.60
25554;DHT22;13446;50.926;5.332;2023-02-25T18:44:02;5.40;96.60
25554;DHT22;13446;50.926;5.332;2023-02-25T18:46:27;5.40;96.20
25554;DHT22;13446;50.926;5.332;2023-02-25T18:48:53;5.30;96.10
25554;DHT22;13446;50.926;5.332;2023-02-25T18:51:18;5.30;96.40
25554;DHT22;13446;50.926;5.332;2023-02-25T18:53:44;5.40;96.30
25554;DHT22;13446;50.926;5.332;2023-02-25T18:56:14;5.30;96.60
25554;DHT22;13446;50.926;5.332;2023-02-25T18:58:41;5.20;96.50
25554;DHT22;13446;50.926;5.332;2023-02-25T19:01:10;5.20;97.10
25554;DHT22;13446;50.926;5.332;2023-02-25T19:03:39;5.10;96.70
25554;DHT22;13446;50.926;5.332;2023-02-25T19:06:08;5.20;96.30
25554;DHT22;13446;50.926;5.332;2023-02-25T19:08:33;5.10;97.00
25554;DHT22;13446;50.926;5.332;2023-02-25T19:10:59;5.00;96.60
25554;DHT22;13446;50.926;5.332;2023-02-25T19:15:56;4.90;97.60
25554;DHT22;13446;50.926;5.332;2023-02-25T19:18:21;4.90;97.60
25554;DHT22;13446;50.926;5.332;2023-02-25T19:20:47;5.00;97.80
25554;DHT22;13446;50.926;5.332;2023-02-25T19:23:14;4.90;98.10
25554;DHT22;13446;50.926;5.332;2023-02-25T19:25:40;4.80;98.00
25554;DHT22;13446;50.926;5.332;2023-02-25T19:28:06;4.80;98.30
25554;DHT22;13446;50.926;5.332;2023-02-25T19:30:33;4.90;97.70
25554;DHT22;13446;50.926;5.332;2023-02-25T19:32:59;4.90;97.90
25554;DHT22;13446;50.926;5.332;2023-02-25T19:35:29;4.90;97.70
25554;DHT22;13446;50.926;5.332;2023-02-25T19:37:55;5.00;97.90
25554;DHT22;13446;50.926;5.332;2023-02-25T19:40:21;4.80;98.20
25554;DHT22;13446;50.926;5.332;2023-02-25T19:42:49;4.80;98.60
25554;DHT22;13446;50.926;5.332;2023-02-25T19:45:16;4.80;98.50
25554;DHT22;13446;50.926;5.332;2023-02-25T19:47:43;4.80;98.80
25554;DHT22;13446;50.926;5.332;2023-02-25T19:50:09;4.80;98.80
25554;DHT22;13446;50.926;5.332;2023-02-25T19:52:36;4.70;99.80
25554;DHT22;13446;50.926;5.332;2023-02-25T19:55:01;4.70;99.20
25554;DHT22;13446;50.926;5.332;2023-02-25T19:57:27;4.60;99.90
25554;DHT22;13446;50.926;5.332;2023-02-25T19:59:53;4.60;99.90